sensor_id;sensor_type;location;lat;lon;timestamp;P1;durP1;ratioP1;P2;durP2;ratioP2
7941;SDS011;4016;50.758;7.150;2024-03-17T00:01:43;6.40;;;4.30;;
7941;SDS011;4016;50.758;7.150;2024-03-17T00:06:45;6.43;;;4.43;;
7941;SDS011;4016;50.758;7.150;2024-03-17T00:11:45;6.00;;;5.00;;
7941;SDS011;4016;50.758;7.150;2024-03-17T00:16:46;7.33;;;4.43;;
7941;SDS011;4016;50.758;7.150;2024-03-17T00:21:46;5.00;;;4.50;;
7941;SDS011;4016;50.758;7.150;2024-03-17T00:26:47;9.20;;;5.23;;
7941;SDS011;4016;50.758;7.150;2024-03-17T00:31:49;6.30;;;5.00;;
7941;SDS011;4016;50.758;7.150;2024-03-17T00:36:49;6.17;;;4.90;;
7941;SDS011;4016;50.758;7.150;2024-03-17T00:41:49;5.67;;;5.07;;
7941;SDS011;4016;50.758;7.150;2024-03-17T00:46:50;5.70;;;5.10;;
7941;SDS011;4016;50.758;7.150;2024-03-17T00:51:50;6.40;;;5.73;;
7941;SDS011;4016;50.758;7.150;2024-03-17T00:56:50;6.17;;;5.57;;
7941;SDS011;4016;50.758;7.150;2024-03-17T01:01:51;7.30;;;6.37;;
7941;SDS011;4016;50.758;7.150;2024-03-17T01:06:51;6.63;;;5.77;;
7941;SDS011;4016;50.758;7.150;2024-03-17T01:11:52;8.20;;;6.67;;
7941;SDS011;4016;50.758;7.150;2024-03-17T01:16:52;7.40;;;6.43;;
7941;SDS011;4016;50.758;7.150;2024-03-17T01:21:53;7.70;;;6.30;;
7941;SDS011;4016;50.758;7.150;2024-03-17T01:26:53;7.67;;;6.53;;
7941;SDS011;4016;50.758;7.150;2024-03-17T01:31:53;8.17;;;6.80;;
7941;SDS011;4016;50.758;7.150;2024-03-17T01:36:54;8.17;;;6.60;;
7941;SDS011;4016;50.758;7.150;2024-03-17T01:41:54;8.87;;;6.77;;
7941;SDS011;4016;50.758;7.150;2024-03-17T01:46:55;7.80;;;6.17;;
7941;SDS011;4016;50.758;7.150;2024-03-17T01:51:56;8.17;;;6.63;;
7941;SDS011;4016;50.758;7.150;2024-03-17T01:56:56;7.23;;;6.33;;
7941;SDS011;4016;50.758;7.150;2024-03-17T02:01:57;7.53;;;6.40;;
7941;SDS011;4016;50.758;7.150;2024-03-17T02:06:57;9.00;;;6.57;;
7941;SDS011;4016;50.758;7.150;2024-03-17T02:11:57;7.33;;;6.20;;
7941;SDS011;4016;50.758;7.150;2024-03-17T02:16:58;10.73;;;6.87;;
7941;SDS011;4016;50.758;7.150;2024-03-17T02:21:58;7.93;;;5.70;;
7941;SDS011;4016;50.758;7.150;2024-03-17T02:26:59;6.87;;;5.80;;
7941;SDS011;4016;50.758;7.150;2024-03-17T02:32:01;8.00;;;6.07;;
7941;SDS011;4016;50.758;7.150;2024-03-17T02:37:06;6.27;;;5.67;;
7941;SDS011;4016;50.758;7.150;2024-03-17T02:42:07;7.60;;;6.20;;
7941;SDS011;4016;50.758;7.150;2024-03-17T02:47:09;6.33;;;5.73;;
7941;SDS011;4016;50.758;7.150;2024-03-17T02:52:10;7.07;;;6.10;;
7941;SDS011;4016;50.758;7.150;2024-03-17T02:57:11;6.33;;;5.40;;
7941;SDS011;4016;50.758;7.150;2024-03-17T03:02:12;8.00;;;6.30;;
7941;SDS011;4016;50.758;7.150;2024-03-17T03:07:12;7.73;;;5.40;;
7941;SDS011;4016;50.758;7.150;2024-03-17T03:12:13;6.97;;;5.70;;
7941;SDS011;4016;50.758;7.150;2024-03-17T03:17:13;6.67;;;5.37;;
7941;SDS011;4016;50.758;7.150;2024-03-17T03:22:13;6.77;;;5.30;;
7941;SDS011;4016;50.758;7.150;2024-03-17T03:27:14;6.87;;;5.17;;
7941;SDS011;4016;50.758;7.150;2024-03-17T03:32:14;6.47;;;5.80;;
7941;SDS011;4016;50.758;7.150;2024-03-17T03:37:14;6.80;;;5.50;;
7941;SDS011;4016;50.758;7.150;2024-03-17T03:42:15;6.30;;;5.33;;
7941;SDS011;4016;50.758;7.150;2024-03-17T03:47:15;7.03;;;5.47;;
7941;SDS011;4016;50.758;7.150;2024-03-17T03:52:16;8.90;;;5.70;;
7941;SDS011;4016;50.758;7.150;2024-03-17T03:57:16;7.10;;;5.27;;
7941;SDS011;4016;50.758;7.150;2024-03-17T04:02:16;7.57;;;5.40;;
7941;SDS011;4016;50.758;7.150;2024-03-17T04:07:17;5.37;;;4.87;;
7941;SDS011;4016;50.758;7.150;2024-03-17T04:12:17;6.73;;;5.20;;
7941;SDS011;4016;50.758;7.150;2024-03-17T04:17:19;5.43;;;4.67;;
7941;SDS011;4016;50.758;7.150;2024-03-17T04:22:21;9.17;;;5.50;;
7941;SDS011;4016;50.758;7.150;2024-03-17T04:27:22;6.10;;;5.07;;
7941;SDS011;4016;50.758;7.150;2024-03-17T04:32:28;7.83;;;5.40;;
7941;SDS011;4016;50.758;7.150;2024-03-17T04:37:29;6.73;;;5.10;;
7941;SDS011;4016;50.758;7.150;2024-03-17T04:42:29;11.83;;;5.57;;
7941;SDS011;4016;50.758;7.150;2024-03-17T04:47:29;7.03;;;5.37;;
7941;SDS011;4016;50.758;7.150;2024-03-17T04:52:30;6.30;;;5.37;;
7941;SDS011;4016;50.758;7.150;2024-03-17T04:57:30;6.13;;;5.07;;
7941;SDS011;4016;50.758;7.150;2024-03-17T05:02:30;6.67;;;5.60;;
7941;SDS011;4016;50.758;7.150;2024-03-17T05:07:32;5.70;;;5.20;;
7941;SDS011;4016;50.758;7.150;2024-03-17T05:12:32;6.73;;;5.43;;
7941;SDS011;4016;50.758;7.150;2024-03-17T05:17:33;6.40;;;5.60;;
7941;SDS011;4016;50.758;7.150;2024-03-17T05:22:33;6.57;;;5.43;;
7941;SDS011;4016;50.758;7.150;2024-03-17T05:27:33;6.03;;;5.37;;
7941;SDS011;4016;50.758;7.150;2024-03-17T05:32:34;6.47;;;5.37;;
7941;SDS011;4016;50.758;7.150;2024-03-17T05:37:34;6.57;;;5.87;;
7941;SDS011;4016;50.758;7.150;2024-03-17T05:42:35;5.73;;;5.23;;
7941;SDS011;4016;50.758;7.150;2024-03-17T05:47:35;7.13;;;5.67;;
7941;SDS011;4016;50.758;7.150;2024-03-17T05:52:36;7.03;;;5.87;;
7941;SDS011;4016;50.758;7.150;2024-03-17T05:57:36;9.10;;;6.20;;
7941;SDS011;4016;50.758;7.150;2024-03-17T06:02:36;6.37;;;5.77;;
7941;SDS011;4016;50.758;7.150;2024-03-17T06:07:37;6.70;;;5.63;;
7941;SDS011;4016;50.758;7.150;2024-03-17T06:12:37;6.57;;;5.87;;
7941;SDS011;4016;50.758;7.150;2024-03-17T06:17:37;9.40;;;6.23;;
7941;SDS011;4016;50.758;7.150;2024-03-17T06:22:38;7.73;;;6.23;;
7941;SDS011;4016;50.758;7.150;2024-03-17T06:27:38;7.40;;;6.33;;
7941;SDS011;4016;50.758;7.150;2024-03-17T06:32:39;8.23;;;6.13;;
7941;SDS011;4016;50.758;7.150;2024-03-17T06:37:45;7.70;;;5.40;;
7941;SDS011;4016;50.758;7.150;2024-03-17T06:42:45;7.13;;;5.60;;
7941;SDS011;4016;50.758;7.150;2024-03-17T06:47:46;7.87;;;5.63;;
7941;SDS011;4016;50.758;7.150;2024-03-17T06:52:46;7.97;;;6.03;;
7941;SDS011;4016;50.758;7.150;2024-03-17T06:57:47;7.23;;;6.33;;
7941;SDS011;4016;50.758;7.150;2024-03-17T07:02:48;8.30;;;7.03;;
7941;SDS011;4016;50.758;7.150;2024-03-17T07:07:52;8.47;;;7.47;;
7941;SDS011;4016;50.758;7.150;2024-03-17T07:12:53;8.27;;;6.93;;
7941;SDS011;4016;50.758;7.150;2024-03-17T07:17:53;9.33;;;7.93;;
7941;SDS011;4016;50.758;7.150;2024-03-17T07:23:06;10.83;;;8.00;;
7941;SDS011;4016;50.758;7.150;2024-03-17T07:28:10;13.10;;;7.57;;
7941;SDS011;4016;50.758;7.150;2024-03-17T07:33:11;8.80;;;7.23;;
7941;SDS011;4016;50.758;7.150;2024-03-17T07:38:11;13.00;;;7.37;;
7941;SDS011;4016;50.758;7.150;2024-03-17T07:43:11;8.80;;;7.80;;
7941;SDS011;4016;50.758;7.150;2024-03-17T07:48:13;8.60;;;6.93;;
7941;SDS011;4016;50.758;7.150;2024-03-17T07:53:13;8.20;;;5.70;;
7941;SDS011;4016;50.758;7.150;2024-03-17T07:58:13;5.50;;;4.67;;
7941;SDS011;4016;50.758;7.150;2024-03-17T08:03:14;5.23;;;4.40;;
7941;SDS011;4016;50.758;7.150;2024-03-17T08:08:14;5.57;;;4.70;;
7941;SDS011;4016;50.758;7.150;2024-03-17T08:13:16;4.43;;;3.97;;
7941;SDS011;4016;50.758;7.150;2024-03-17T08:18:20;4.40;;;4.00;;
7941;SDS011;4016;50.758;7.150;2024-03-17T08:23:21;4.43;;;4.03;;
7941;SDS011;4016;50.758;7.150;2024-03-17T08:28:23;4.77;;;3.87;;
7941;SDS011;4016;50.758;7.150;2024-03-17T08:33:24;4.87;;;4.20;;
7941;SDS011;4016;50.758;7.150;2024-03-17T08:38:26;6.00;;;3.60;;
7941;SDS011;4016;50.758;7.150;2024-03-17T08:43:28;4.70;;;3.90;;
7941;SDS011;4016;50.758;7.150;2024-03-17T08:48:29;5.73;;;4.13;;
7941;SDS011;4016;50.758;7.150;2024-03-17T08:53:30;4.70;;;3.40;;
7941;SDS011;4016;50.758;7.150;2024-03-17T08:58:31;6.10;;;3.50;;
7941;SDS011;4016;50.758;7.150;2024-03-17T09:03:32;4.30;;;3.50;;
7941;SDS011;4016;50.758;7.150;2024-03-17T09:08:33;3.83;;;3.43;;
7941;SDS011;4016;50.758;7.150;2024-03-17T09:13:34;4.63;;;3.80;;
7941;SDS011;4016;50.758;7.150;2024-03-17T09:18:35;9.67;;;3.50;;
7941;SDS011;4016;50.758;7.150;2024-03-17T09:23:36;3.70;;;3.30;;
7941;SDS011;4016;50.758;7.150;2024-03-17T09:28:38;5.33;;;3.47;;
7941;SDS011;4016;50.758;7.150;2024-03-17T09:33:38;4.03;;;3.43;;
7941;SDS011;4016;50.758;7.150;2024-03-17T09:38:39;4.23;;;3.50;;
7941;SDS011;4016;50.758;7.150;2024-03-17T09:43:39;4.40;;;3.30;;
7941;SDS011;4016;50.758;7.150;2024-03-17T09:48:40;3.50;;;3.20;;
7941;SDS011;4016;50.758;7.150;2024-03-17T09:53:40;3.83;;;3.53;;
7941;SDS011;4016;50.758;7.150;2024-03-17T09:58:48;4.43;;;3.30;;
7941;SDS011;4016;50.758;7.150;2024-03-17T10:03:52;3.50;;;3.20;;
7941;SDS011;4016;50.758;7.150;2024-03-17T10:08:59;4.03;;;3.20;;
7941;SDS011;4016;50.758;7.150;2024-03-17T10:14:17;3.73;;;3.10;;
7941;SDS011;4016;50.758;7.150;2024-03-17T10:19:21;3.30;;;3.07;;
7941;SDS011;4016;50.758;7.150;2024-03-17T10:24:24;4.10;;;3.10;;
7941;SDS011;4016;50.758;7.150;2024-03-17T10:34:28;3.60;;;3.10;;
7941;SDS011;4016;50.758;7.150;2024-03-17T10:39:34;5.23;;;3.40;;
7941;SDS011;4016;50.758;7.150;2024-03-17T10:44:36;12.87;;;8.70;;
7941;SDS011;4016;50.758;7.150;2024-03-17T10:49:38;3.67;;;3.27;;
7941;SDS011;4016;50.758;7.150;2024-03-17T10:54:39;3.93;;;3.00;;
7941;SDS011;4016;50.758;7.150;2024-03-17T10:59:41;3.60;;;3.30;;
7941;SDS011;4016;50.758;7.150;2024-03-17T11:04:46;3.63;;;3.33;;
7941;SDS011;4016;50.758;7.150;2024-03-17T11:09:47;3.80;;;3.17;;
7941;SDS011;4016;50.758;7.150;2024-03-17T11:14:49;5.90;;;3.60;;
7941;SDS011;4016;50.758;7.150;2024-03-17T11:20:08;4.13;;;3.43;;
7941;SDS011;4016;50.758;7.150;2024-03-17T11:25:55;5.10;;;3.23;;
7941;SDS011;4016;50.758;7.150;2024-03-17T11:35:40;3.47;;;3.17;;
7941;SDS011;4016;50.758;7.150;2024-03-17T11:40:41;4.53;;;3.60;;
7941;SDS011;4016;50.758;7.150;2024-03-17T11:45:42;3.73;;;3.23;;
7941;SDS011;4016;50.758;7.150;2024-03-17T11:50:44;3.92;;;3.50;;
7941;SDS011;4016;50.758;7.150;2024-03-17T11:55:47;3.73;;;3.23;;
7941;SDS011;4016;50.758;7.150;2024-03-17T12:00:51;4.05;;;3.67;;
7941;SDS011;4016;50.758;7.150;2024-03-17T12:05:52;3.80;;;3.50;;
7941;SDS011;4016;50.758;7.150;2024-03-17T12:10:53;3.60;;;3.30;;
7941;SDS011;4016;50.758;7.150;2024-03-17T12:16:09;4.00;;;3.47;;
7941;SDS011;4016;50.758;7.150;2024-03-17T12:21:12;4.53;;;3.65;;
7941;SDS011;4016;50.758;7.150;2024-03-17T12:26:15;6.38;;;3.67;;
7941;SDS011;4016;50.758;7.150;2024-03-17T12:31:16;4.28;;;3.88;;
7941;SDS011;4016;50.758;7.150;2024-03-17T12:36:16;5.47;;;3.60;;
7941;SDS011;4016;50.758;7.150;2024-03-17T12:41:17;4.10;;;3.65;;
7941;SDS011;4016;50.758;7.150;2024-03-17T12:46:17;4.60;;;3.38;;
7941;SDS011;4016;50.758;7.150;2024-03-17T12:51:18;5.50;;;4.30;;
7941;SDS011;4016;50.758;7.150;2024-03-17T12:56:22;5.88;;;4.00;;
7941;SDS011;4016;50.758;7.150;2024-03-17T13:01:42;4.28;;;3.78;;
7941;SDS011;4016;50.758;7.150;2024-03-17T13:06:42;3.97;;;3.50;;
7941;SDS011;4016;50.758;7.150;2024-03-17T13:11:42;3.33;;;3.03;;
7941;SDS011;4016;50.758;7.150;2024-03-17T13:16:43;4.00;;;3.30;;
7941;SDS011;4016;50.758;7.150;2024-03-17T13:21:43;3.60;;;3.30;;
7941;SDS011;4016;50.758;7.150;2024-03-17T13:26:44;4.32;;;3.83;;
7941;SDS011;4016;50.758;7.150;2024-03-17T13:31:45;3.53;;;3.17;;
7941;SDS011;4016;50.758;7.150;2024-03-17T13:36:45;4.25;;;3.85;;
7941;SDS011;4016;50.758;7.150;2024-03-17T13:41:46;4.03;;;3.63;;
7941;SDS011;4016;50.758;7.150;2024-03-17T13:46:47;4.97;;;3.50;;
7941;SDS011;4016;50.758;7.150;2024-03-17T13:51:48;4.10;;;3.70;;
7941;SDS011;4016;50.758;7.150;2024-03-17T13:56:48;5.63;;;4.20;;
7941;SDS011;4016;50.758;7.150;2024-03-17T14:01:48;3.85;;;3.50;;
7941;SDS011;4016;50.758;7.150;2024-03-17T14:06:49;4.25;;;3.28;;
7941;SDS011;4016;50.758;7.150;2024-03-17T14:11:49;7.38;;;3.40;;
7941;SDS011;4016;50.758;7.150;2024-03-17T14:16:50;6.20;;;3.72;;
7941;SDS011;4016;50.758;7.150;2024-03-17T14:21:50;5.60;;;3.97;;
7941;SDS011;4016;50.758;7.150;2024-03-17T14:26:51;4.15;;;3.75;;
7941;SDS011;4016;50.758;7.150;2024-03-17T14:31:51;4.18;;;3.78;;
7941;SDS011;4016;50.758;7.150;2024-03-17T14:36:52;4.07;;;3.58;;
7941;SDS011;4016;50.758;7.150;2024-03-17T14:41:52;7.07;;;4.32;;
7941;SDS011;4016;50.758;7.150;2024-03-17T14:46:52;5.35;;;4.53;;
7941;SDS011;4016;50.758;7.150;2024-03-17T14:51:54;5.63;;;4.05;;
7941;SDS011;4016;50.758;7.150;2024-03-17T14:56:56;5.90;;;4.10;;
7941;SDS011;4016;50.758;7.150;2024-03-17T15:01:57;5.55;;;4.32;;
7941;SDS011;4016;50.758;7.150;2024-03-17T15:06:58;4.60;;;4.20;;
7941;SDS011;4016;50.758;7.150;2024-03-17T15:11:58;4.10;;;3.70;;
7941;SDS011;4016;50.758;7.150;2024-03-17T15:16:58;5.38;;;3.70;;
7941;SDS011;4016;50.758;7.150;2024-03-17T15:21:59;5.70;;;3.70;;
7941;SDS011;4016;50.758;7.150;2024-03-17T15:26:59;4.93;;;4.20;;
7941;SDS011;4016;50.758;7.150;2024-03-17T15:32:00;4.18;;;3.78;;
7941;SDS011;4016;50.758;7.150;2024-03-17T15:37:00;5.57;;;3.80;;
7941;SDS011;4016;50.758;7.150;2024-03-17T15:42:00;4.70;;;4.22;;
7941;SDS011;4016;50.758;7.150;2024-03-17T15:47:01;5.63;;;4.13;;
7941;SDS011;4016;50.758;7.150;2024-03-17T15:52:03;7.75;;;4.13;;
7941;SDS011;4016;50.758;7.150;2024-03-17T15:57:04;4.32;;;3.90;;
7941;SDS011;4016;50.758;7.150;2024-03-17T16:02:04;5.40;;;3.85;;
7941;SDS011;4016;50.758;7.150;2024-03-17T16:07:06;4.82;;;3.83;;
7941;SDS011;4016;50.758;7.150;2024-03-17T16:12:07;4.15;;;3.50;;
7941;SDS011;4016;50.758;7.150;2024-03-17T16:17:10;4.83;;;4.00;;
7941;SDS011;4016;50.758;7.150;2024-03-17T16:22:11;4.68;;;3.70;;
7941;SDS011;4016;50.758;7.150;2024-03-17T16:27:13;4.27;;;3.87;;
7941;SDS011;4016;50.758;7.150;2024-03-17T16:32:13;4.57;;;3.87;;
7941;SDS011;4016;50.758;7.150;2024-03-17T16:37:16;5.95;;;3.50;;
7941;SDS011;4016;50.758;7.150;2024-03-17T16:42:16;3.73;;;3.00;;
7941;SDS011;4016;50.758;7.150;2024-03-17T16:47:21;3.80;;;3.20;;
7941;SDS011;4016;50.758;7.150;2024-03-17T16:52:28;3.87;;;2.97;;
7941;SDS011;4016;50.758;7.150;2024-03-17T16:57:29;3.40;;;2.73;;
7941;SDS011;4016;50.758;7.150;2024-03-17T17:02:29;3.03;;;2.73;;
7941;SDS011;4016;50.758;7.150;2024-03-17T17:07:29;3.60;;;2.90;;
7941;SDS011;4016;50.758;7.150;2024-03-17T17:12:31;3.43;;;2.60;;
7941;SDS011;4016;50.758;7.150;2024-03-17T17:17:31;3.60;;;2.60;;
7941;SDS011;4016;50.758;7.150;2024-03-17T17:22:31;3.30;;;2.70;;
7941;SDS011;4016;50.758;7.150;2024-03-17T17:27:32;3.10;;;2.67;;
7941;SDS011;4016;50.758;7.150;2024-03-17T17:32:32;4.27;;;2.40;;
7941;SDS011;4016;50.758;7.150;2024-03-17T17:37:34;3.63;;;3.13;;
7941;SDS011;4016;50.758;7.150;2024-03-17T17:42:34;3.47;;;2.93;;
7941;SDS011;4016;50.758;7.150;2024-03-17T17:47:35;3.00;;;2.50;;
7941;SDS011;4016;50.758;7.150;2024-03-17T17:52:37;3.30;;;2.70;;
7941;SDS011;4016;50.758;7.150;2024-03-17T17:57:38;2.97;;;2.73;;
7941;SDS011;4016;50.758;7.150;2024-03-17T18:02:38;3.27;;;2.63;;
7941;SDS011;4016;50.758;7.150;2024-03-17T18:07:39;3.10;;;2.77;;
7941;SDS011;4016;50.758;7.150;2024-03-17T18:12:39;3.77;;;2.87;;
7941;SDS011;4016;50.758;7.150;2024-03-17T18:17:40;3.80;;;3.03;;
7941;SDS011;4016;50.758;7.150;2024-03-17T18:22:40;5.03;;;2.77;;
7941;SDS011;4016;50.758;7.150;2024-03-17T18:27:40;3.00;;;2.70;;
7941;SDS011;4016;50.758;7.150;2024-03-17T18:32:41;3.20;;;2.80;;
7941;SDS011;4016;50.758;7.150;2024-03-17T18:37:41;3.40;;;2.53;;
7941;SDS011;4016;50.758;7.150;2024-03-17T18:42:42;3.37;;;2.87;;
7941;SDS011;4016;50.758;7.150;2024-03-17T18:47:43;3.87;;;3.10;;
7941;SDS011;4016;50.758;7.150;2024-03-17T18:52:44;3.47;;;3.17;;
7941;SDS011;4016;50.758;7.150;2024-03-17T18:57:44;7.03;;;4.80;;
7941;SDS011;4016;50.758;7.150;2024-03-17T19:02:45;4.03;;;3.40;;
7941;SDS011;4016;50.758;7.150;2024-03-17T19:07:50;4.17;;;2.90;;
7941;SDS011;4016;50.758;7.150;2024-03-17T19:12:51;4.70;;;3.10;;
7941;SDS011;4016;50.758;7.150;2024-03-17T19:17:53;4.10;;;2.90;;
7941;SDS011;4016;50.758;7.150;2024-03-17T19:22:53;3.67;;;3.23;;
7941;SDS011;4016;50.758;7.150;2024-03-17T19:27:55;5.67;;;3.60;;
7941;SDS011;4016;50.758;7.150;2024-03-17T19:32:55;3.77;;;3.47;;
7941;SDS011;4016;50.758;7.150;2024-03-17T19:37:56;4.43;;;3.40;;
7941;SDS011;4016;50.758;7.150;2024-03-17T19:42:56;4.70;;;3.57;;
7941;SDS011;4016;50.758;7.150;2024-03-17T19:47:56;6.17;;;3.67;;
7941;SDS011;4016;50.758;7.150;2024-03-17T19:52:57;6.63;;;3.83;;
7941;SDS011;4016;50.758;7.150;2024-03-17T19:57:57;5.60;;;3.90;;
7941;SDS011;4016;50.758;7.150;2024-03-17T20:02:57;5.90;;;3.90;;
7941;SDS011;4016;50.758;7.150;2024-03-17T20:07:58;6.50;;;4.00;;
7941;SDS011;4016;50.758;7.150;2024-03-17T20:12:58;4.97;;;3.93;;
7941;SDS011;4016;50.758;7.150;2024-03-17T20:17:59;4.40;;;4.00;;
7941;SDS011;4016;50.758;7.150;2024-03-17T20:23:00;4.67;;;4.00;;
7941;SDS011;4016;50.758;7.150;2024-03-17T20:28:01;4.87;;;4.20;;
7941;SDS011;4016;50.758;7.150;2024-03-17T20:33:01;5.23;;;4.30;;
7941;SDS011;4016;50.758;7.150;2024-03-17T20:38:01;5.17;;;3.97;;
7941;SDS011;4016;50.758;7.150;2024-03-17T20:43:03;4.10;;;3.70;;
7941;SDS011;4016;50.758;7.150;2024-03-17T20:48:05;6.20;;;4.20;;
7941;SDS011;4016;50.758;7.150;2024-03-17T20:53:06;4.40;;;3.97;;
7941;SDS011;4016;50.758;7.150;2024-03-17T20:58:11;5.67;;;4.37;;
7941;SDS011;4016;50.758;7.150;2024-03-17T21:03:12;6.40;;;4.87;;
7941;SDS011;4016;50.758;7.150;2024-03-17T21:08:12;5.93;;;5.37;;
7941;SDS011;4016;50.758;7.150;2024-03-17T21:13:16;7.37;;;6.30;;
7941;SDS011;4016;50.758;7.150;2024-03-17T21:18:16;7.37;;;5.40;;
7941;SDS011;4016;50.758;7.150;2024-03-17T21:23:19;7.63;;;5.47;;
7941;SDS011;4016;50.758;7.150;2024-03-17T21:28:19;6.50;;;5.90;;
7941;SDS011;4016;50.758;7.150;2024-03-17T21:33:20;9.70;;;6.93;;
7941;SDS011;4016;50.758;7.150;2024-03-17T21:38:20;9.83;;;5.90;;
7941;SDS011;4016;50.758;7.150;2024-03-17T21:43:20;8.07;;;6.33;;
7941;SDS011;4016;50.758;7.150;2024-03-17T21:48:22;6.83;;;6.13;;
7941;SDS011;4016;50.758;7.150;2024-03-17T21:53:22;7.83;;;6.57;;
7941;SDS011;4016;50.758;7.150;2024-03-17T21:58:23;8.30;;;6.93;;
7941;SDS011;4016;50.758;7.150;2024-03-17T22:03:23;7.47;;;6.40;;
7941;SDS011;4016;50.758;7.150;2024-03-17T22:08:25;9.03;;;7.03;;
7941;SDS011;4016;50.758;7.150;2024-03-17T22:13:26;9.60;;;7.37;;
7941;SDS011;4016;50.758;7.150;2024-03-17T22:18:28;9.60;;;7.10;;
7941;SDS011;4016;50.758;7.150;2024-03-17T22:23:28;8.70;;;7.77;;
7941;SDS011;4016;50.758;7.150;2024-03-17T22:28:30;9.50;;;7.80;;
7941;SDS011;4016;50.758;7.150;2024-03-17T22:33:32;8.63;;;7.23;;
7941;SDS011;4016;50.758;7.150;2024-03-17T22:38:34;8.60;;;7.70;;
7941;SDS011;4016;50.758;7.150;2024-03-17T22:43:36;11.43;;;8.27;;
7941;SDS011;4016;50.758;7.150;2024-03-17T22:48:38;8.70;;;7.27;;
7941;SDS011;4016;50.758;7.150;2024-03-17T22:53:43;10.57;;;8.20;;
7941;SDS011;4016;50.758;7.150;2024-03-17T22:58:44;10.43;;;7.80;;
7941;SDS011;4016;50.758;7.150;2024-03-17T23:03:45;12.43;;;7.90;;
7941;SDS011;4016;50.758;7.150;2024-03-17T23:08:46;10.40;;;8.10;;
7941;SDS011;4016;50.758;7.150;2024-03-17T23:13:46;8.17;;;7.37;;
7941;SDS011;4016;50.758;7.150;2024-03-17T23:18:51;8.60;;;7.70;;
7941;SDS011;4016;50.758;7.150;2024-03-17T23:23:51;9.27;;;7.57;;
7941;SDS011;4016;50.758;7.150;2024-03-17T23:28:52;9.33;;;6.90;;
7941;SDS011;4016;50.758;7.150;2024-03-17T23:33:52;10.10;;;7.93;;
7941;SDS011;4016;50.758;7.150;2024-03-17T23:38:53;8.80;;;7.80;;
7941;SDS011;4016;50.758;7.150;2024-03-17T23:43:55;10.90;;;8.43;;
7941;SDS011;4016;50.758;7.150;2024-03-17T23:48:55;7.97;;;7.03;;
7941;SDS011;4016;50.758;7.150;2024-03-17T23:53:56;9.67;;;8.40;;
7941;SDS011;4016;50.758;7.150;2024-03-17T23:58:57;9.87;;;7.30;;
